createdAt,value
2018-02-18T00:02:21.839Z,47.25
2018-02-18T00:04:48.639Z,47.55
2018-02-18T00:07:15.255Z,47.71
2018-02-18T00:09:42.180Z,47.47
2018-02-18T00:12:07.955Z,47.39
2018-02-18T00:14:37.694Z,47.46
2018-02-18T00:17:03.503Z,47.39
2018-02-18T00:19:29.351Z,47.61
2018-02-18T00:21:55.155Z,47.37
2018-02-18T00:24:21.968Z,47.60
2018-02-18T00:26:48.669Z,47.42
2018-02-18T00:29:14.463Z,47.63
2018-02-18T00:31:40.271Z,47.61
2018-02-18T00:34:06.092Z,47.67
2018-02-18T00:36:32.854Z,47.59
2018-02-18T00:38:58.646Z,47.13
2018-02-18T00:41:24.474Z,46.93
2018-02-18T00:43:50.275Z,47.14
2018-02-18T00:46:17.078Z,46.68
2018-02-18T00:48:42.871Z,46.81
2018-02-18T00:51:09.613Z,47.23
2018-02-18T00:53:35.406Z,46.84
2018-02-18T00:56:01.998Z,46.92
2018-02-18T00:58:27.834Z,47.45
2018-02-18T01:00:54.451Z,46.93
2018-02-18T01:03:21.252Z,47.02
2018-02-18T01:05:47.039Z,47.10
2018-02-18T01:08:13.743Z,47.45
2018-02-18T01:10:39.533Z,47.32
2018-02-18T01:13:06.220Z,47.34
2018-02-18T01:15:32.066Z,47.33
2018-02-18T01:17:58.746Z,47.39
2018-02-18T01:20:25.449Z,47.21
2018-02-18T01:22:52.276Z,47.50
2018-02-18T01:25:18.074Z,47.54
2018-02-18T01:27:44.747Z,47.31
2018-02-18T01:30:11.498Z,47.16
2018-02-18T01:32:38.291Z,47.19
2018-02-18T01:35:04.140Z,47.26
2018-02-18T01:37:29.939Z,47.38
2018-02-18T01:39:55.775Z,47.31
2018-02-18T01:42:21.572Z,47.56
2018-02-18T01:44:47.401Z,47.54
2018-02-18T01:47:14.103Z,47.42
2018-02-18T01:49:40.738Z,47.42
2018-02-18T01:52:06.544Z,47.01
2018-02-18T01:54:32.341Z,47.39
2018-02-18T01:56:58.132Z,47.47
2018-02-18T01:59:24.710Z,47.41
2018-02-18T02:01:50.514Z,47.27
2018-02-18T02:04:16.321Z,47.17
2018-02-18T02:06:43.034Z,47.15
2018-02-18T02:09:08.829Z,47.33
2018-02-18T02:11:35.460Z,47.26
2018-02-18T02:14:02.285Z,47.30
2018-02-18T02:16:28.093Z,47.26
2018-02-18T02:18:53.928Z,47.61
2018-02-18T02:21:19.718Z,47.92
2018-02-18T02:23:46.367Z,47.45
2018-02-18T02:26:12.175Z,47.57
2018-02-18T02:28:38.039Z,47.34
2018-02-18T02:31:03.831Z,47.28
2018-02-18T02:33:29.669Z,47.30
2018-02-18T02:35:55.455Z,47.15
2018-02-18T02:38:21.286Z,47.04
2018-02-18T02:40:47.089Z,46.99
2018-02-18T02:43:12.891Z,47.17
2018-02-18T02:45:38.698Z,47.27
2018-02-18T02:48:05.607Z,47.17
2018-02-18T02:50:31.410Z,47.17
2018-02-18T02:52:57.203Z,46.95
2018-02-18T02:55:22.994Z,46.79
2018-02-18T02:57:48.796Z,47.00
2018-02-18T03:00:14.598Z,46.89
2018-02-18T03:02:40.406Z,47.21
2018-02-18T03:05:06.258Z,46.96
2018-02-18T03:07:32.050Z,47.28
2018-02-18T03:09:57.881Z,47.26
2018-02-18T03:12:23.686Z,47.00
2018-02-18T03:14:49.545Z,47.03
2018-02-18T03:17:15.346Z,47.02
2018-02-18T03:19:41.144Z,47.17
2018-02-18T03:22:06.990Z,46.91
2018-02-18T03:24:32.834Z,47.64
2018-02-18T03:26:58.674Z,47.21
2018-02-18T03:29:24.474Z,47.43
2018-02-18T03:31:51.254Z,47.12
2018-02-18T03:34:17.050Z,46.92
2018-02-18T03:36:42.883Z,47.04
2018-02-18T03:39:08.686Z,46.90
2018-02-18T03:41:34.530Z,47.38
2018-02-18T03:44:00.371Z,47.27
2018-02-18T03:46:26.171Z,47.46
2018-02-18T03:48:52.163Z,47.07
2018-02-18T03:51:17.966Z,47.28
2018-02-18T03:53:43.897Z,47.41
2018-02-18T03:56:09.734Z,47.32
2018-02-18T03:58:35.527Z,47.50
2018-02-18T04:01:01.335Z,47.35
2018-02-18T04:03:27.128Z,47.45
2018-02-18T04:05:52.970Z,47.77
2018-02-18T04:08:18.769Z,47.62
2018-02-18T04:10:44.579Z,47.60
2018-02-18T04:13:10.390Z,47.78
2018-02-18T04:15:37.059Z,47.54
2018-02-18T04:18:02.868Z,47.65
2018-02-18T04:20:28.679Z,47.31
2018-02-18T04:22:54.482Z,47.62
2018-02-18T04:25:20.304Z,47.70
2018-02-18T04:27:46.118Z,47.15
2018-02-18T04:30:11.922Z,47.48
2018-02-18T04:32:37.730Z,47.27
2018-02-18T04:35:03.539Z,47.76
2018-02-18T04:37:29.346Z,47.14
2018-02-18T04:39:55.149Z,46.93
2018-02-18T04:42:20.949Z,47.18
2018-02-18T04:44:46.766Z,47.16
2018-02-18T04:47:12.569Z,47.28
2018-02-18T04:49:38.371Z,47.57
2018-02-18T04:52:04.226Z,47.29
2018-02-18T04:54:30.068Z,47.13
2018-02-18T04:56:55.907Z,47.63
2018-02-18T04:59:21.723Z,47.35
2018-02-18T05:01:47.554Z,46.87
2018-02-18T05:04:13.350Z,47.16
2018-02-18T05:06:39.154Z,47.66
2018-02-18T05:09:04.999Z,47.12
2018-02-18T05:11:30.805Z,47.55
2018-02-18T05:13:56.618Z,47.62
2018-02-18T05:16:22.414Z,47.44
2018-02-18T05:18:48.219Z,47.57
2018-02-18T05:21:14.031Z,47.48
2018-02-18T05:23:39.873Z,47.42
2018-02-18T05:26:05.713Z,47.56
2018-02-18T05:28:31.523Z,47.66
2018-02-18T05:30:57.422Z,47.69
2018-02-18T05:33:23.219Z,47.44
2018-02-18T05:35:49.014Z,47.87
2018-02-18T05:38:14.806Z,47.93
2018-02-18T05:40:40.658Z,47.99
2018-02-18T05:43:06.489Z,47.61
2018-02-18T05:45:32.438Z,47.82
2018-02-18T05:47:58.233Z,47.55
2018-02-18T05:50:24.053Z,47.75
2018-02-18T05:52:49.850Z,47.97
2018-02-18T05:55:15.652Z,47.97
2018-02-18T05:57:41.461Z,47.52
2018-02-18T06:00:07.271Z,47.46
2018-02-18T06:02:33.077Z,47.62
2018-02-18T06:04:58.891Z,47.84
2018-02-18T06:07:24.704Z,47.97
2018-02-18T06:09:50.514Z,48.00
2018-02-18T06:12:16.361Z,47.80
2018-02-18T06:14:42.167Z,48.03
2018-02-18T06:17:07.986Z,47.38
2018-02-18T06:19:33.789Z,47.36
2018-02-18T06:21:59.597Z,47.81
2018-02-18T06:24:25.402Z,48.04
2018-02-18T06:26:51.206Z,47.53
2018-02-18T06:29:17.032Z,47.65
2018-02-18T06:31:42.882Z,47.68
2018-02-18T06:34:08.734Z,47.08
2018-02-18T06:36:34.571Z,47.13
2018-02-18T06:39:00.405Z,47.20
2018-02-18T06:41:26.302Z,47.09
2018-02-18T06:43:52.098Z,47.49
2018-02-18T06:46:17.897Z,47.23
2018-02-18T06:48:43.907Z,46.82
2018-02-18T06:51:09.706Z,47.08
2018-02-18T06:53:35.570Z,47.36
2018-02-18T06:56:01.377Z,47.12
2018-02-18T06:58:27.238Z,47.27
2018-02-18T07:00:53.034Z,47.22
2018-02-18T07:03:18.870Z,47.27
2018-02-18T07:05:44.675Z,47.82
2018-02-18T07:08:10.510Z,47.74
2018-02-18T07:10:36.315Z,47.85
2018-02-18T07:13:02.151Z,47.31
2018-02-18T07:15:27.962Z,47.51
2018-02-18T07:17:53.764Z,47.23
2018-02-18T07:20:19.566Z,47.54
2018-02-18T07:22:45.362Z,47.33
2018-02-18T07:25:11.265Z,47.43
2018-02-18T07:27:37.071Z,47.55
2018-02-18T07:30:02.878Z,47.74
2018-02-18T07:32:28.690Z,47.60
2018-02-18T07:34:55.378Z,47.22
2018-02-18T07:37:21.209Z,47.13
2018-02-18T07:39:47.062Z,47.47
2018-02-18T07:42:12.898Z,47.67
2018-02-18T07:44:38.689Z,46.98
2018-02-18T07:47:04.558Z,47.00
2018-02-18T07:49:30.364Z,46.94
2018-02-18T07:51:56.184Z,47.03
2018-02-18T07:54:22.017Z,47.17
2018-02-18T07:56:47.812Z,47.17
2018-02-18T07:59:13.615Z,47.01
2018-02-18T08:01:39.421Z,46.98
2018-02-18T08:04:05.251Z,46.89
2018-02-18T08:06:31.039Z,47.01
2018-02-18T08:08:56.871Z,47.02
2018-02-18T08:11:22.682Z,46.97
2018-02-18T08:13:48.530Z,46.58
2018-02-18T08:16:14.357Z,46.64
2018-02-18T08:18:40.156Z,46.55
2018-02-18T08:21:05.961Z,46.75
2018-02-18T08:23:31.771Z,46.94
2018-02-18T08:25:57.650Z,46.54
2018-02-18T08:28:23.510Z,46.42
2018-02-18T08:30:49.305Z,46.63
2018-02-18T08:33:15.110Z,46.79
2018-02-18T08:35:40.934Z,46.73
2018-02-18T08:38:06.778Z,46.61
2018-02-18T08:40:32.583Z,46.70
2018-02-18T08:42:58.430Z,46.95
2018-02-18T08:45:24.233Z,46.72
2018-02-18T08:47:50.101Z,46.75
2018-02-18T08:50:15.897Z,46.64
2018-02-18T08:52:41.739Z,46.71
2018-02-18T08:55:07.537Z,46.86
2018-02-18T08:57:33.402Z,47.25
2018-02-18T08:59:59.206Z,46.54
2018-02-18T09:02:25.066Z,46.77
2018-02-18T09:04:50.882Z,47.15
2018-02-18T09:07:16.733Z,46.04
2018-02-18T09:09:42.519Z,46.06
2018-02-18T09:12:08.317Z,46.32
2018-02-18T09:14:34.115Z,46.47
2018-02-18T09:16:59.934Z,46.88
2018-02-18T09:19:25.743Z,46.22
2018-02-18T09:21:51.539Z,46.58
2018-02-18T09:24:17.364Z,46.00
2018-02-18T09:26:43.172Z,45.84
2018-02-18T09:29:08.971Z,46.21
2018-02-18T09:31:34.775Z,46.03
2018-02-18T09:34:00.759Z,45.74
2018-02-18T09:36:26.559Z,45.53
2018-02-18T09:38:52.419Z,45.29
2018-02-18T09:41:18.214Z,39.78
2018-02-18T09:43:44.041Z,40.25
2018-02-18T09:46:09.833Z,42.62
2018-02-18T09:48:35.791Z,43.77
2018-02-18T09:51:01.716Z,43.65
2018-02-18T09:53:27.713Z,43.68
2018-02-18T09:55:53.566Z,43.85
2018-02-18T09:58:19.362Z,43.80
2018-02-18T10:00:45.165Z,43.82
2018-02-18T10:03:11.005Z,44.06
2018-02-18T10:05:36.841Z,44.48
2018-02-18T10:08:02.764Z,44.30
2018-02-18T10:10:28.618Z,44.56
2018-02-18T10:12:54.463Z,44.15
2018-02-18T10:15:20.305Z,43.86
2018-02-18T10:17:46.103Z,44.38
2018-02-18T10:20:11.959Z,44.59
2018-02-18T10:22:37.811Z,44.57
2018-02-18T10:25:03.615Z,44.91
2018-02-18T10:27:29.427Z,45.24
2018-02-18T10:29:55.223Z,44.13
2018-02-18T10:32:22.069Z,44.37
2018-02-18T10:34:47.916Z,44.28
2018-02-18T10:37:13.737Z,44.73
2018-02-18T10:39:39.557Z,44.54
2018-02-18T10:42:05.383Z,44.72
2018-02-18T10:44:31.231Z,44.48
2018-02-18T10:46:57.034Z,44.79
2018-02-18T10:49:22.874Z,44.85
2018-02-18T10:51:48.749Z,44.29
2018-02-18T10:54:14.591Z,44.36
2018-02-18T10:56:40.426Z,43.99
2018-02-18T10:59:06.296Z,43.75
2018-02-18T11:01:32.099Z,43.75
2018-02-18T11:03:57.968Z,44.11
2018-02-18T11:06:23.835Z,43.78
2018-02-18T11:08:49.854Z,44.14
2018-02-18T11:11:15.678Z,43.78
2018-02-18T11:13:42.324Z,43.40
2018-02-18T11:16:08.126Z,43.86
2018-02-18T11:18:33.930Z,43.26
2018-02-18T11:20:59.735Z,42.94
2018-02-18T11:23:25.542Z,43.12
2018-02-18T11:25:51.390Z,43.07
2018-02-18T11:28:17.193Z,43.45
2018-02-18T11:30:43.037Z,43.03
2018-02-18T11:33:08.850Z,43.36
2018-02-18T11:35:34.702Z,43.87
2018-02-18T11:38:00.506Z,42.63
2018-02-18T11:40:26.355Z,42.38
2018-02-18T11:42:52.163Z,43.09
2018-02-18T11:45:17.959Z,43.55
2018-02-18T11:47:43.754Z,42.89
2018-02-18T11:50:09.564Z,43.06
2018-02-18T11:52:35.375Z,42.98
2018-02-18T11:55:01.186Z,42.31
2018-02-18T11:57:26.994Z,43.04
2018-02-18T11:59:52.839Z,42.69
2018-02-18T12:02:18.755Z,42.47
2018-02-18T12:04:44.570Z,42.60
2018-02-18T12:07:10.497Z,42.64
2018-02-18T12:09:36.309Z,42.13
2018-02-18T12:12:02.116Z,43.49
2018-02-18T12:14:27.909Z,43.02
2018-02-18T12:16:53.714Z,42.77
2018-02-18T12:19:19.520Z,43.03
2018-02-18T12:21:45.335Z,42.38
2018-02-18T12:24:11.135Z,42.18
2018-02-18T12:26:36.938Z,41.94
2018-02-18T12:29:02.763Z,41.64
2018-02-18T12:31:28.575Z,42.37
2018-02-18T12:33:54.439Z,42.47
2018-02-18T12:36:20.259Z,42.27
2018-02-18T12:38:46.063Z,41.84
2018-02-18T12:41:11.973Z,42.03
2018-02-18T12:43:37.822Z,41.84
2018-02-18T12:46:03.658Z,42.18
2018-02-18T12:48:29.522Z,42.21
2018-02-18T12:50:55.339Z,42.56
2018-02-18T12:53:21.311Z,42.16
2018-02-18T12:55:47.119Z,41.89
2018-02-18T12:58:12.943Z,42.34
2018-02-18T13:00:38.748Z,42.23
2018-02-18T13:03:04.553Z,42.43
2018-02-18T13:05:30.355Z,41.54
2018-02-18T13:07:56.150Z,41.48
2018-02-18T13:10:21.960Z,41.57
2018-02-18T13:12:47.768Z,42.14
2018-02-18T13:15:13.583Z,41.88
2018-02-18T13:17:39.447Z,42.85
2018-02-18T13:20:05.250Z,42.35
2018-02-18T13:22:31.087Z,42.09
2018-02-18T13:24:56.885Z,41.30
2018-02-18T13:27:22.751Z,41.65
2018-02-18T13:29:48.550Z,41.80
2018-02-18T13:32:14.384Z,41.92
2018-02-18T13:34:40.206Z,41.68
2018-02-18T13:37:06.047Z,41.49
2018-02-18T13:39:31.877Z,41.07
2018-02-18T13:41:57.714Z,42.21
2018-02-18T13:44:23.517Z,42.10
2018-02-18T13:46:49.373Z,42.24
2018-02-18T13:49:15.166Z,42.44
2018-02-18T13:51:41.011Z,41.68
2018-02-18T13:54:06.802Z,41.49
2018-02-18T13:56:32.586Z,42.16
2018-02-18T13:58:58.422Z,42.26
2018-02-18T14:01:24.297Z,43.17
2018-02-18T14:03:50.188Z,42.13
2018-02-18T14:06:15.983Z,41.45
2018-02-18T14:08:41.815Z,41.81
2018-02-18T14:11:07.666Z,42.10
2018-02-18T14:13:33.471Z,42.24
2018-02-18T14:16:00.139Z,42.51
2018-02-18T14:18:25.947Z,42.32
2018-02-18T14:20:51.754Z,42.23
2018-02-18T14:23:17.571Z,42.58
2018-02-18T14:25:43.458Z,43.10
2018-02-18T14:28:09.258Z,43.21
2018-02-18T14:30:35.072Z,43.06
2018-02-18T14:33:00.866Z,42.62
2018-02-18T14:35:26.671Z,42.15
2018-02-18T14:37:52.475Z,42.26
2018-02-18T14:40:18.276Z,42.41
2018-02-18T14:42:50.270Z,42.07
2018-02-18T14:45:22.324Z,42.39
2018-02-18T14:47:54.118Z,42.40
2018-02-18T14:50:26.020Z,42.94
2018-02-18T14:55:53.234Z,42.80
2018-02-18T14:58:19.066Z,43.07
2018-02-18T15:00:44.854Z,42.43
2018-02-18T15:03:10.650Z,41.99
2018-02-18T15:05:36.453Z,41.96
2018-02-18T15:08:02.251Z,41.93
2018-02-18T15:10:28.251Z,42.08
2018-02-18T15:12:54.051Z,42.04
2018-02-18T15:15:19.878Z,41.40
2018-02-18T15:17:46.634Z,41.62
2018-02-18T15:20:12.448Z,42.25
2018-02-18T15:22:38.250Z,42.50
2018-02-18T15:25:04.141Z,43.00
2018-02-18T15:27:29.940Z,43.24
2018-02-18T15:29:55.733Z,43.23
2018-02-18T15:32:21.535Z,42.73
2018-02-18T15:34:47.335Z,43.04
2018-02-18T15:37:13.123Z,42.95
2018-02-18T15:39:38.921Z,43.22
2018-02-18T15:42:04.722Z,43.11
2018-02-18T15:44:30.510Z,43.16
2018-02-18T15:46:56.400Z,42.22
2018-02-18T15:49:22.206Z,42.62
2018-02-18T15:51:48.042Z,42.80
2018-02-18T15:54:13.831Z,43.10
2018-02-18T15:56:39.668Z,43.38
2018-02-18T15:59:05.499Z,43.28
2018-02-18T16:01:31.296Z,43.03
2018-02-18T16:03:57.137Z,42.73
2018-02-18T16:06:22.975Z,43.39
2018-02-18T16:08:48.756Z,43.52
2018-02-18T16:11:14.613Z,43.67
2018-02-18T16:13:40.415Z,43.45
2018-02-18T16:16:06.263Z,43.73
2018-02-18T16:18:32.084Z,43.23
2018-02-18T16:20:57.914Z,43.70
2018-02-18T16:23:23.708Z,44.32
2018-02-18T16:25:49.574Z,43.95
2018-02-18T16:28:15.597Z,44.07
2018-02-18T16:30:41.386Z,43.73
2018-02-18T16:33:07.363Z,44.13
2018-02-18T16:35:33.158Z,43.51
2018-02-18T16:37:58.998Z,43.59
2018-02-18T16:40:24.831Z,43.18
2018-02-18T16:42:50.653Z,43.09
2018-02-18T16:45:16.451Z,40.08
2018-02-18T16:47:42.272Z,42.50
2018-02-18T16:50:08.110Z,42.37
2018-02-18T16:52:33.907Z,42.63
2018-02-18T16:54:59.740Z,42.83
2018-02-18T16:57:25.649Z,42.70
2018-02-18T16:59:51.468Z,42.97
2018-02-18T17:02:17.259Z,43.09
2018-02-18T17:04:43.115Z,43.15
2018-02-18T17:07:08.909Z,43.51
2018-02-18T17:09:34.730Z,43.47
2018-02-18T17:12:00.522Z,43.18
2018-02-18T17:14:26.367Z,43.26
2018-02-18T17:16:52.278Z,43.48
2018-02-18T17:19:18.999Z,43.68
2018-02-18T17:21:44.871Z,43.79
2018-02-18T17:24:10.678Z,43.73
2018-02-18T17:26:36.505Z,43.41
2018-02-18T17:29:02.293Z,43.38
2018-02-18T17:31:28.090Z,43.60
2018-02-18T17:33:53.887Z,43.83
2018-02-18T17:36:19.681Z,43.71
2018-02-18T17:38:46.326Z,43.48
2018-02-18T17:41:12.315Z,43.49
2018-02-18T17:43:38.274Z,42.86
2018-02-18T17:46:04.058Z,43.10
2018-02-18T17:48:29.890Z,42.80
2018-02-18T17:50:55.677Z,42.67
2018-02-18T17:53:22.341Z,42.97
2018-02-18T17:55:49.013Z,43.07
2018-02-18T17:58:14.799Z,41.66
2018-02-18T18:00:40.630Z,41.90
2018-02-18T18:03:06.421Z,41.89
2018-02-18T18:05:32.242Z,41.94
2018-02-18T18:07:58.033Z,41.86
2018-02-18T18:10:23.870Z,41.88
2018-02-18T18:12:49.670Z,41.76
2018-02-18T18:15:15.458Z,42.04
2018-02-18T18:17:41.265Z,42.21
2018-02-18T18:20:07.055Z,42.27
2018-02-18T18:22:32.856Z,42.00
2018-02-18T18:24:58.667Z,42.01
2018-02-18T18:27:24.520Z,41.99
2018-02-18T18:29:50.351Z,42.13
2018-02-18T18:32:16.159Z,42.33
2018-02-18T18:34:41.946Z,42.25
2018-02-18T18:37:07.794Z,42.15
2018-02-18T18:39:33.592Z,42.21
2018-02-18T18:41:59.404Z,42.44
2018-02-18T18:44:25.212Z,42.32
2018-02-18T18:46:51.074Z,42.55
2018-02-18T18:49:16.864Z,42.54
2018-02-18T18:51:42.666Z,42.37
2018-02-18T18:54:08.460Z,42.11
2018-02-18T18:56:34.287Z,42.57
2018-02-18T18:59:00.092Z,42.35
2018-02-18T19:01:26.444Z,42.27
2018-02-18T19:03:52.239Z,42.22
2018-02-18T19:06:18.071Z,42.13
2018-02-18T19:08:43.991Z,42.15
2018-02-18T19:11:09.921Z,42.51
2018-02-18T19:13:35.721Z,42.59
2018-02-18T19:16:01.570Z,42.55
2018-02-18T19:18:27.368Z,42.48
2018-02-18T19:20:53.159Z,42.08
2018-02-18T19:23:18.992Z,42.17
2018-02-18T19:25:44.831Z,42.42
2018-02-18T19:28:10.651Z,42.34
2018-02-18T19:30:37.423Z,42.17
2018-02-18T19:33:03.251Z,42.04
2018-02-18T19:35:29.078Z,41.88
2018-02-18T19:37:54.876Z,42.09
2018-02-18T19:40:20.710Z,41.94
2018-02-18T19:42:46.501Z,41.66
2018-02-18T19:45:12.335Z,42.06
2018-02-18T19:47:38.139Z,42.18
2018-02-18T19:50:03.990Z,41.98
2018-02-18T19:52:30.808Z,41.82
2018-02-18T19:54:56.655Z,41.95
2018-02-18T19:57:22.517Z,42.03
2018-02-18T19:59:48.387Z,42.01
2018-02-18T20:02:14.227Z,41.83
2018-02-18T20:04:40.034Z,41.54
2018-02-18T20:07:06.075Z,41.34
2018-02-18T20:09:31.878Z,41.71
2018-02-18T20:11:57.704Z,41.67
2018-02-18T20:14:23.501Z,41.80
2018-02-18T20:16:49.341Z,41.54
2018-02-18T20:19:15.210Z,41.70
2018-02-18T20:21:41.289Z,41.60
2018-02-18T20:24:07.162Z,41.59
2018-02-18T20:26:33.016Z,41.98
2018-02-18T20:28:58.851Z,41.96
2018-02-18T20:31:24.763Z,42.23
2018-02-18T20:33:50.563Z,41.62
2018-02-18T20:36:16.470Z,41.62
2018-02-18T20:38:42.271Z,41.89
2018-02-18T20:41:08.092Z,41.95
2018-02-18T20:43:33.887Z,42.13
2018-02-18T20:45:59.856Z,42.04
2018-02-18T20:48:25.777Z,41.54
2018-02-18T20:50:51.716Z,41.57
2018-02-18T20:53:17.507Z,41.87
2018-02-18T20:55:43.476Z,42.24
2018-02-18T20:58:09.318Z,41.69
2018-02-18T21:00:36.215Z,42.07
2018-02-18T21:03:02.007Z,42.21
2018-02-18T21:05:27.802Z,41.92
2018-02-18T21:07:53.595Z,42.41
2018-02-18T21:10:19.390Z,42.37
2018-02-18T21:12:45.295Z,42.18
2018-02-18T21:15:11.078Z,42.36
2018-02-18T21:17:36.876Z,42.17
2018-02-18T21:20:02.687Z,42.11
2018-02-18T21:22:28.527Z,42.35
2018-02-18T21:24:54.317Z,42.44
2018-02-18T21:27:20.112Z,42.53
2018-02-18T21:29:46.573Z,42.79
2018-02-18T21:32:12.415Z,42.44
2018-02-18T21:34:38.211Z,42.08
2018-02-18T21:37:04.003Z,42.24
2018-02-18T21:39:29.798Z,42.44
2018-02-18T21:41:56.677Z,42.16
2018-02-18T21:44:22.514Z,42.37
2018-02-18T21:46:48.518Z,42.04
2018-02-18T21:49:14.306Z,42.07
2018-02-18T21:51:40.112Z,42.10
2018-02-18T21:54:06.082Z,41.95
2018-02-18T21:56:31.880Z,41.89
2018-02-18T21:58:57.676Z,42.14
2018-02-18T22:01:23.507Z,42.15
2018-02-18T22:03:49.339Z,42.28
2018-02-18T22:06:15.126Z,42.21
2018-02-18T22:08:40.966Z,42.02
2018-02-18T22:11:06.771Z,41.93
2018-02-18T22:13:32.558Z,42.08
2018-02-18T22:15:58.452Z,42.24
2018-02-18T22:18:24.246Z,41.96
2018-02-18T22:20:50.035Z,42.29
2018-02-18T22:23:15.840Z,42.25
2018-02-18T22:25:41.638Z,42.10
2018-02-18T22:28:07.551Z,41.95
2018-02-18T22:30:33.379Z,42.23
2018-02-18T22:32:59.297Z,42.28
2018-02-18T22:35:25.100Z,42.04
2018-02-18T22:37:50.891Z,42.10
2018-02-18T22:40:16.686Z,42.13
2018-02-18T22:42:42.488Z,42.10
2018-02-18T22:45:08.279Z,42.03
2018-02-18T22:47:34.142Z,42.23
2018-02-18T22:49:59.935Z,42.35
2018-02-18T22:52:25.800Z,42.35
2018-02-18T22:54:51.663Z,42.30
2018-02-18T22:57:17.493Z,42.00
2018-02-18T22:59:43.291Z,42.03
2018-02-18T23:02:09.111Z,42.17
2018-02-18T23:04:34.974Z,42.20
2018-02-18T23:07:06.600Z,42.05
2018-02-18T23:09:32.418Z,42.29
2018-02-18T23:11:58.203Z,41.99
2018-02-18T23:14:24.039Z,42.21
2018-02-18T23:16:49.838Z,42.12
2018-02-18T23:19:15.632Z,42.02
2018-02-18T23:21:41.453Z,41.88
2018-02-18T23:24:07.233Z,42.04
2018-02-18T23:26:33.053Z,41.91
2018-02-18T23:28:58.841Z,41.90
2018-02-18T23:31:24.700Z,41.71
2018-02-18T23:33:50.493Z,41.81
2018-02-18T23:36:16.287Z,41.73
2018-02-18T23:38:42.310Z,41.81
2018-02-18T23:41:08.178Z,41.58
2018-02-18T23:43:33.971Z,41.86
2018-02-18T23:45:59.763Z,41.75
2018-02-18T23:48:25.587Z,41.69
2018-02-18T23:50:51.421Z,41.63
2018-02-18T23:53:17.410Z,41.79
2018-02-18T23:55:44.375Z,41.83
2018-02-18T23:58:10.213Z,41.98
